Time;durP1;ratioP1;P1;durP2;ratioP2;P2;SDS_P1;SDS_P2;PMS_P1;PMS_P2;Temp;Humidity;BMP_temperature;BMP_pressure;BME280_temperature;BME280_humidity;BME280_pressure;Samples;Min_cycle;Max_cycle;Signal;HPM_P1;HPM_P2
2023/03/31 00:00:20;;;;;;;;;;;;;;;;;;4690458;30;19935;-88
2023/03/31 00:02:46;;;;;;;;;;;;;;;;;;4681690;30;19931;-88
2023/03/31 00:05:16;;;;;;;;;;;;;;;;;;4690318;30;19934;-88
2023/03/31 00:07:44;;;;;;;;;;;;;;;;;;4690097;30;20341;-88
2023/03/31 00:10:10;;;;;;;;;;;;;;;;;;4705668;30;20013;-88
2023/03/31 00:12:36;;;;;;;;;;;;;;;;;;4688901;30;20475;-89
2023/03/31 00:15:02;;;;;;;;;;;;;;;;;;4685917;30;19938;-88
2023/03/31 00:17:31;;;;;;;;;;;;;;;;;;4700843;30;19934;-89
2023/03/31 00:19:59;;;;;;;;;;;;;;;;;;4687616;30;19930;-88
2023/03/31 00:22:26;;;;;;;;;;;;;;;;;;4699209;30;19991;-88
2023/03/31 00:24:52;;;;;;;;;;;;;;;;;;4700503;30;19930;-88
2023/03/31 00:27:22;;;;;;;;;;;;;;;;;;4703312;30;19938;-88
2023/03/31 00:29:49;;;;;;;;;;;;;;;;;;4701878;30;19931;-88
2023/03/31 00:32:15;;;;;;;;;;;;;;;;;;4699448;30;20071;-89
2023/03/31 00:34:43;;;;;;;;;;;;;;;;;;4706341;30;19937;-89
2023/03/31 00:37:14;;;;;;;;;;;;;;;;;;4696267;30;20017;-88
2023/03/31 00:39:41;;;;;;;;;;;;;;;;;;4696504;30;19931;-88
2023/03/31 00:42:07;;;;;;;;;;;;;;;;;;4687251;30;20024;-88
2023/03/31 00:44:33;;;;;;;;;;;;;;;;;;4705755;30;19934;-88
2023/03/31 00:47:01;;;;;;;;;;;;;;;;;;4703407;30;19942;-88
2023/03/31 00:49:27;;;;;;;;;;;;;;;;;;4694123;30;20399;-88
2023/03/31 00:51:53;;;;;;;;;;;;;;;;;;4688691;30;19934;-88
2023/03/31 00:54:20;;;;;;;;;;;;;;;;;;4707420;30;19934;-88
2023/03/31 00:56:47;;;;;;;;;;;;;;;;;;4702708;30;19965;-88
2023/03/31 00:59:13;;;;;;;;;;;;;;;;;;4707758;30;19942;-88
2023/03/31 01:01:41;;;;;;;;;;;;;;;;;;4703631;30;19926;-88
2023/03/31 01:04:08;;;;;;;;;;;;;;;;;;4688201;30;19934;-88
2023/03/31 01:06:34;;;;;;;;;;;;;;;;;;4695298;30;19970;-88
2023/03/31 01:09:06;;;;;;;;;;;;;;;;;;4699582;30;21515;-88
2023/03/31 01:11:31;;;;;;;;;;;;;;;;;;4693370;30;20008;-88
2023/03/31 01:13:57;;;;;;;;;;;;;;;;;;4703104;30;19934;-88
2023/03/31 01:16:24;;;;;;;;;;;;;;;;;;4706389;30;20009;-88
2023/03/31 01:18:49;;;;;;;;;;;;;;;;;;4690312;30;20166;-88
2023/03/31 01:21:17;;;;;;;;;;;;;;;;;;4704356;30;19926;-88
2023/03/31 01:23:43;;;;;;;;;;;;;;;;;;4696353;30;20009;-88
2023/03/31 01:26:09;;;;;;;;;;;;;;;;;;4697113;30;19930;-88
2023/03/31 01:28:35;;;;;;;;;;;;;;;;;;4712266;30;20236;-88
2023/03/31 01:31:01;;;;;;;;;;;;;;;;;;4709898;30;19940;-88
2023/03/31 01:33:27;;;;;;;;;;;;;;;;;;4730775;30;19938;-88
2023/03/31 01:35:53;;;;;;;;;;;;;;;;;;4698461;30;20282;-88
2023/03/31 01:38:19;;;;;;;;;;;;;;;;;;4703784;30;20037;-88
2023/03/31 01:40:45;;;;;;;;;;;;;;;;;;4712633;30;19934;-88
2023/03/31 01:43:11;;;;;;;;;;;;;;;;;;4702324;30;19930;-88
2023/03/31 01:45:37;;;;;;;;;;;;;;;;;;4700043;30;19930;-87
2023/03/31 01:48:05;;;;;;;;;;;;;;;;;;4696468;30;21283;-88
2023/03/31 01:50:31;;;;;;;;;;;;;;;;;;4716123;30;19941;-88
2023/03/31 01:52:57;;;;;;;;;;;;;;;;;;4688449;30;19930;-88
2023/03/31 01:55:24;;;;;;;;;;;;;;;;;;4697000;30;19938;-88
2023/03/31 01:57:50;;;;;;;;;;;;;;;;;;4713014;30;20037;-88
2023/03/31 02:00:17;;;;;;;;;;;;;;;;;;4723361;30;20397;-88
2023/03/31 02:02:43;;;;;;;;;;;;;;;;;;4703768;30;20068;-88
2023/03/31 02:05:09;;;;;;;;;;;;;;;;;;4704491;30;20164;-87
2023/03/31 02:07:35;;;;;;;;;;;;;;;;;;4704857;30;19930;-88
2023/03/31 02:10:01;;;;;;;;;;;;;;;;;;4689631;30;20438;-88
2023/03/31 02:12:27;;;;;;;;;;;;;;;;;;4713041;30;19925;-88
2023/03/31 02:14:53;;;;;;;;;;;;;;;;;;4707067;30;20045;-88
2023/03/31 02:17:19;;;;;;;;;;;;;;;;;;4729275;30;19934;-88
2023/03/31 02:19:45;;;;;;;;;;;;;;;;;;4709410;30;19930;-88
2023/03/31 02:22:11;;;;;;;;;;;;;;;;;;4707898;30;20487;-88
2023/03/31 02:24:37;;;;;;;;;;;;;;;;;;4693489;30;19935;-88
2023/03/31 02:27:03;;;;;;;;;;;;;;;;;;4686994;30;21978;-88
2023/03/31 02:29:29;;;;;;;;;;;;;;;;;;4704483;30;19999;-88
2023/03/31 02:31:55;;;;;;;;;;;;;;;;;;4702413;30;19937;-88
2023/03/31 02:34:21;;;;;;;;;;;;;;;;;;4704346;30;19931;-89
2023/03/31 02:36:47;;;;;;;;;;;;;;;;;;4700168;30;19934;-88
2023/03/31 02:39:13;;;;;;;;;;;;;;;;;;4693657;30;20391;-88
2023/03/31 02:41:39;;;;;;;;;;;;;;;;;;4692267;30;19977;-87
2023/03/31 02:44:05;;;;;;;;;;;;;;;;;;4690242;30;19941;-88
2023/03/31 02:46:31;;;;;;;;;;;;;;;;;;4696807;30;19984;-88
2023/03/31 02:48:57;;;;;;;;;;;;;;;;;;4700285;30;19929;-88
2023/03/31 02:51:23;;;;;;;;;;;;;;;;;;4688205;30;19930;-88
2023/03/31 02:53:49;;;;;;;;;;;;;;;;;;4705475;30;20334;-88
2023/03/31 02:56:15;;;;;;;;;;;;;;;;;;4690296;30;20017;-88
2023/03/31 02:58:42;;;;;;;;;;;;;;;;;;4692940;30;19941;-88
2023/03/31 03:01:10;;;;;;;;;;;;;;;;;;4701030;30;20129;-88
2023/03/31 03:03:36;;;;;;;;;;;;;;;;;;4693055;30;19960;-88
2023/03/31 03:06:04;;;;;;;;;;;;;;;;;;4696231;30;19937;-88
2023/03/31 03:08:30;;;;;;;;;;;;;;;;;;4706605;30;20348;-88
2023/03/31 03:10:56;;;;;;;;;;;;;;;;;;4716918;30;19939;-88
2023/03/31 03:13:22;;;;;;;;;;;;;;;;;;4689729;30;20052;-88
2023/03/31 03:15:48;;;;;;;;;;;;;;;;;;4700482;30;19931;-88
2023/03/31 03:18:14;;;;;;;;;;;;;;;;;;4703888;30;19941;-88
2023/03/31 03:20:40;;;;;;;;;;;;;;;;;;4693719;30;19936;-88
2023/03/31 03:23:06;;;;;;;;;;;;;;;;;;4703292;30;19934;-88
2023/03/31 03:25:33;;;;;;;;;;;;;;;;;;4689012;30;19934;-88
2023/03/31 03:27:58;;;;;;;;;;;;;;;;;;4685734;30;19933;-88
2023/03/31 03:30:24;;;;;;;;;;;;;;;;;;4702257;30;20394;-88
2023/03/31 03:32:50;;;;;;;;;;;;;;;;;;4686186;30;20607;-88
2023/03/31 03:35:16;;;;;;;;;;;;;;;;;;4705960;30;19991;-88
2023/03/31 03:37:43;;;;;;;;;;;;;;;;;;4693125;30;20059;-88
2023/03/31 03:40:09;;;;;;;;;;;;;;;;;;4694706;30;19934;-88
2023/03/31 03:42:35;;;;;;;;;;;;;;;;;;4697317;30;19930;-88
2023/03/31 03:45:01;;;;;;;;;;;;;;;;;;4684396;30;19974;-88
2023/03/31 03:47:27;;;;;;;;;;;;;;;;;;4693413;30;19976;-88
2023/03/31 03:49:53;;;;;;;;;;;;;;;;;;4685538;30;20033;-88
2023/03/31 03:52:20;;;;;;;;;;;;;;;;;;4693769;30;19941;-88
2023/03/31 03:54:46;;;;;;;;;;;;;;;;;;4710004;30;19965;-88
2023/03/31 03:57:12;;;;;;;;;;;;;;;;;;4706555;30;20394;-88
2023/03/31 03:59:38;;;;;;;;;;;;;;;;;;4722183;30;19934;-88
2023/03/31 04:02:04;;;;;;;;;;;;;;;;;;4696529;30;19933;-88
2023/03/31 04:04:30;;;;;;;;;;;;;;;;;;4701960;30;20398;-88
2023/03/31 04:06:56;;;;;;;;;;;;;;;;;;4685203;30;19930;-88
2023/03/31 04:09:22;;;;;;;;;;;;;;;;;;4713688;30;20418;-88
2023/03/31 04:11:48;;;;;;;;;;;;;;;;;;4688973;30;20346;-88
2023/03/31 04:14:14;;;;;;;;;;;;;;;;;;4712188;30;19926;-88
2023/03/31 04:16:41;;;;;;;;;;;;;;;;;;4706218;30;20121;-87
2023/03/31 04:19:10;;;;;;;;;;;;;;;;;;4686268;30;19937;-88
2023/03/31 04:21:36;;;;;;;;;;;;;;;;;;4706629;30;19930;-87
2023/03/31 04:24:03;;;;;;;;;;;;;;;;;;4703274;30;19974;-87
2023/03/31 04:26:41;;;;;;;;;;;;;;;;;;4717883;30;19934;-87
2023/03/31 04:29:08;;;;;;;;;;;;;;;;;;4696794;30;19947;-87
2023/03/31 04:31:37;;;;;;;;;;;;;;;;;;4701992;30;19931;-87
2023/03/31 04:34:05;;;;;;;;;;;;;;;;;;4716171;30;22038;-88
2023/03/31 04:36:31;;;;;;;;;;;;;;;;;;4703000;30;20396;-88
2023/03/31 04:38:57;;;;;;;;;;;;;;;;;;4701147;30;20028;-88
2023/03/31 04:41:23;;;;;;;;;;;;;;;;;;4703459;30;19930;-88
2023/03/31 04:43:49;;;;;;;;;;;;;;;;;;4697090;30;19936;-88
2023/03/31 04:46:15;;;;;;;;;;;;;;;;;;4700344;30;19937;-88
2023/03/31 04:48:41;;;;;;;;;;;;;;;;;;4702972;30;19961;-88
2023/03/31 04:51:08;;;;;;;;;;;;;;;;;;4703984;30;19926;-87
2023/03/31 04:53:34;;;;;;;;;;;;;;;;;;4690148;30;19938;-87
2023/03/31 04:56:00;;;;;;;;;;;;;;;;;;4700408;30;19970;-88
2023/03/31 04:58:26;;;;;;;;;;;;;;;;;;4701895;30;20332;-88
2023/03/31 05:00:52;;;;;;;;;;;;;;;;;;4697953;30;19934;-87
2023/03/31 05:03:18;;;;;;;;;;;;;;;;;;4700547;30;19926;-87
2023/03/31 05:05:44;;;;;;;;;;;;;;;;;;4688293;30;19934;-88
2023/03/31 05:08:09;;;;;;;;;;;;;;;;;;4698288;30;19934;-86
2023/03/31 05:10:35;;;;;;;;;;;;;;;;;;4704601;30;20379;-85
2023/03/31 05:13:01;;;;;;;;;;;;;;;;;;4694675;30;21362;-88
2023/03/31 05:15:27;;;;;;;;;;;;;;;;;;4701451;30;20017;-89
2023/03/31 05:17:53;;;;;;;;;;;;;;;;;;4698398;30;19935;-89
2023/03/31 05:20:19;;;;;;;;;;;;;;;;;;4698168;30;19931;-89
2023/03/31 05:22:45;;;;;;;;;;;;;;;;;;4687236;30;19926;-89
2023/03/31 05:25:13;;;;;;;;;;;;;;;;;;4693698;30;19931;-88
2023/03/31 05:27:39;;;;;;;;;;;;;;;;;;4703391;30;20448;-88
2023/03/31 05:30:06;;;;;;;;;;;;;;;;;;4691094;30;19957;-88
2023/03/31 05:32:32;;;;;;;;;;;;;;;;;;4700203;30;20410;-88
2023/03/31 05:34:58;;;;;;;;;;;;;;;;;;4686320;30;20003;-89
2023/03/31 05:37:24;;;;;;;;;;;;;;;;;;4697003;30;20220;-89
2023/03/31 05:39:50;;;;;;;;;;;;;;;;;;4688786;30;19930;-88
2023/03/31 05:42:16;;;;;;;;;;;;;;;;;;4694766;30;19927;-89
2023/03/31 05:44:45;;;;;;;;;;;;;;;;;;4690131;30;19933;-88
2023/03/31 05:47:11;;;;;;;;;;;;;;;;;;4690004;30;19981;-88
2023/03/31 05:49:37;;;;;;;;;;;;;;;;;;4695012;30;20057;-88
2023/03/31 05:52:03;;;;;;;;;;;;;;;;;;4704759;30;22091;-88
2023/03/31 05:54:29;;;;;;;;;;;;;;;;;;4696240;30;19941;-89
2023/03/31 05:56:55;;;;;;;;;;;;;;;;;;4687320;30;19938;-88
2023/03/31 05:59:21;;;;;;;;;;;;;;;;;;4713696;30;19938;-88
2023/03/31 06:01:47;;;;;;;;;;;;;;;;;;4697717;30;20025;-89
2023/03/31 06:04:13;;;;;;;;;;;;;;;;;;4692681;30;20268;-89
2023/03/31 06:06:39;;;;;;;;;;;;;;;;;;4688566;30;19930;-88
2023/03/31 06:09:05;;;;;;;;;;;;;;;;;;4695242;30;19934;-89
2023/03/31 06:11:31;;;;;;;;;;;;;;;;;;4707978;30;19930;-89
2023/03/31 06:13:57;;;;;;;;;;;;;;;;;;4699687;30;20303;-89
2023/03/31 06:16:23;;;;;;;;;;;;;;;;;;4717603;30;19930;-89
2023/03/31 06:18:50;;;;;;;;;;;;;;;;;;4696469;30;19933;-89
2023/03/31 06:21:16;;;;;;;;;;;;;;;;;;4691540;30;20371;-89
2023/03/31 06:23:45;;;;;;;;;;;;;;;;;;4687937;30;19935;-89
2023/03/31 06:26:11;;;;;;;;;;;;;;;;;;4712395;30;19934;-89
2023/03/31 06:28:37;;;;;;;;;;;;;;;;;;4703265;30;20349;-89
2023/03/31 06:31:03;;;;;;;;;;;;;;;;;;4693349;30;20954;-89
2023/03/31 06:33:29;;;;;;;;;;;;;;;;;;4700916;30;19941;-89
2023/03/31 06:35:55;;;;;;;;;;;;;;;;;;4699399;30;20287;-89
2023/03/31 06:38:21;;;;;;;;;;;;;;;;;;4715384;30;19930;-89
2023/03/31 06:40:47;;;;;;;;;;;;;;;;;;4690804;30;19930;-89
2023/03/31 06:43:13;;;;;;;;;;;;;;;;;;4691806;30;19969;-89
2023/03/31 06:45:39;;;;;;;;;;;;;;;;;;4691251;30;20295;-89
2023/03/31 06:48:05;;;;;;;;;;;;;;;;;;4696304;30;19934;-89
2023/03/31 06:50:31;;;;;;;;;;;;;;;;;;4709774;30;19930;-89
2023/03/31 06:52:57;;;;;;;;;;;;;;;;;;4705800;30;19958;-88
2023/03/31 06:55:23;;;;;;;;;;;;;;;;;;4710797;30;19938;-89
2023/03/31 06:57:49;;;;;;;;;;;;;;;;;;4704949;30;19933;-89
2023/03/31 07:00:15;;;;;;;;;;;;;;;;;;4701328;30;19938;-89
2023/03/31 07:02:42;;;;;;;;;;;;;;;;;;4705300;30;19930;-88
2023/03/31 07:05:08;;;;;;;;;;;;;;;;;;4696182;30;20029;-89
2023/03/31 07:07:34;;;;;;;;;;;;;;;;;;4692128;30;20394;-90
2023/03/31 07:10:00;;;;;;;;;;;;;;;;;;4712142;30;19934;-89
2023/03/31 07:12:25;;;;;;;;;;;;;;;;;;4701164;30;19934;-89
2023/03/31 07:14:51;;;;;;;;;;;;;;;;;;4706594;30;19938;-89
2023/03/31 07:17:17;;;;;;;;;;;;;;;;;;4708785;30;20532;-89
2023/03/31 07:19:46;;;;;;;;;;;;;;;;;;4711860;30;20059;-89
2023/03/31 07:22:13;;;;;;;;;;;;;;;;;;4700468;30;20065;-89
2023/03/31 07:24:39;;;;;;;;;;;;;;;;;;4703482;30;19935;-89
2023/03/31 07:27:05;;;;;;;;;;;;;;;;;;4719264;29;19926;-90
2023/03/31 07:29:31;;;;;;;;;;;;;;;;;;4713966;30;20968;-89
2023/03/31 07:31:57;;;;;;;;;;;;;;;;;;4706736;30;19930;-89
2023/03/31 07:34:23;;;;;;;;;;;;;;;;;;4714814;30;19934;-89
2023/03/31 07:36:50;;;;;;;;;;;;;;;;;;4697167;30;19973;-89
2023/03/31 07:39:16;;;;;;;;;;;;;;;;;;4717809;30;19937;-89
2023/03/31 07:41:42;;;;;;;;;;;;;;;;;;4700880;30;19934;-89
2023/03/31 07:44:08;;;;;;;;;;;;;;;;;;4728660;30;20905;-89
2023/03/31 07:46:34;;;;;;;;;;;;;;;;;;4698514;30;19938;-89
2023/03/31 07:49:02;;;;;;;;;;;;;;;;;;4700411;30;19987;-89
2023/03/31 07:51:28;;;;;;;;;;;;;;;;;;4709736;30;20036;-89
2023/03/31 07:53:54;;;;;;;;;;;;;;;;;;4705377;30;19934;-89
2023/03/31 07:56:20;;;;;;;;;;;;;;;;;;4699616;30;20024;-89
2023/03/31 07:58:46;;;;;;;;;;;;;;;;;;4707672;30;20458;-89
2023/03/31 08:01:15;;;;;;;;;;;;;;;;;;4694997;30;20536;-89
2023/03/31 08:03:41;;;;;;;;;;;;;;;;;;4708792;30;20288;-89
2023/03/31 08:06:07;;;;;;;;;;;;;;;;;;4707806;30;19984;-89
2023/03/31 08:08:33;;;;;;;;;;;;;;;;;;4709855;30;19938;-89
2023/03/31 08:10:59;;;;;;;;;;;;;;;;;;4693108;30;19931;-89
2023/03/31 08:13:25;;;;;;;;;;;;;;;;;;4702353;30;20283;-89
2023/03/31 08:15:51;;;;;;;;;;;;;;;;;;4699001;30;19974;-89
2023/03/31 08:18:17;;;;;;;;;;;;;;;;;;4718432;30;19930;-89
2023/03/31 08:20:43;;;;;;;;;;;;;;;;;;4700668;30;19926;-89
2023/03/31 08:23:10;;;;;;;;;;;;;;;;;;4710477;30;20078;-89
2023/03/31 08:25:37;;;;;;;;;;;;;;;;;;4691785;30;19937;-89
2023/03/31 08:28:03;;;;;;;;;;;;;;;;;;4704842;30;19926;-89
2023/03/31 08:30:29;;;;;;;;;;;;;;;;;;4712250;30;19930;-89
2023/03/31 08:32:55;;;;;;;;;;;;;;;;;;4702252;30;20307;-89
2023/03/31 08:35:21;;;;;;;;;;;;;;;;;;4694890;30;19957;-89
2023/03/31 08:37:47;;;;;;;;;;;;;;;;;;4692503;30;20357;-89
2023/03/31 08:40:13;;;;;;;;;;;;;;;;;;4697352;30;19934;-88
2023/03/31 08:42:39;;;;;;;;;;;;;;;;;;4712536;30;20021;-89
2023/03/31 08:45:05;;;;;;;;;;;;;;;;;;4694292;30;19937;-89
2023/03/31 08:47:31;;;;;;;;;;;;;;;;;;4699457;30;19939;-88
2023/03/31 08:49:57;;;;;;;;;;;;;;;;;;4716082;30;19927;-89
2023/03/31 08:52:23;;;;;;;;;;;;;;;;;;4717191;30;19931;-89
2023/03/31 08:54:49;;;;;;;;;;;;;;;;;;4711124;30;19931;-89
2023/03/31 08:57:15;;;;;;;;;;;;;;;;;;4711185;30;20286;-89
2023/03/31 08:59:43;;;;;;;;;;;;;;;;;;4704799;30;19941;-89
2023/03/31 09:02:09;;;;;;;;;;;;;;;;;;4715029;30;20499;-89
2023/03/31 09:04:35;;;;;;;;;;;;;;;;;;4715855;30;19938;-89
2023/03/31 09:07:01;;;;;;;;;;;;;;;;;;4700455;30;19983;-89
2023/03/31 09:09:27;;;;;;;;;;;;;;;;;;4717230;30;19930;-89
2023/03/31 09:11:54;;;;;;;;;;;;;;;;;;4698577;30;19937;-89
2023/03/31 09:14:20;;;;;;;;;;;;;;;;;;4715968;30;20382;-89
2023/03/31 09:16:46;;;;;;;;;;;;;;;;;;4702055;30;20038;-89
2023/03/31 09:19:12;;;;;;;;;;;;;;;;;;4717593;30;20031;-89
2023/03/31 09:21:38;;;;;;;;;;;;;;;;;;4714774;30;20382;-89
2023/03/31 09:24:04;;;;;;;;;;;;;;;;;;4712354;30;20287;-89
2023/03/31 09:26:30;;;;;;;;;;;;;;;;;;4695104;30;20037;-89
2023/03/31 09:28:56;;;;;;;;;;;;;;;;;;4685466;30;20800;-89
2023/03/31 09:31:22;;;;;;;;;;;;;;;;;;4702986;30;19992;-89
2023/03/31 09:33:48;;;;;;;;;;;;;;;;;;4692201;30;20934;-89
2023/03/31 09:36:14;;;;;;;;;;;;;;;;;;4710223;30;19953;-89
2023/03/31 09:38:40;;;;;;;;;;;;;;;;;;4712808;30;20152;-89
2023/03/31 09:41:07;;;;;;;;;;;;;;;;;;4700605;30;20037;-90
2023/03/31 09:43:34;;;;;;;;;;;;;;;;;;4703711;30;20339;-90
2023/03/31 09:46:00;;;;;;;;;;;;;;;;;;4699920;30;19926;-89
2023/03/31 09:48:26;;;;;;;;;;;;;;;;;;4711798;30;20028;-89
2023/03/31 09:50:52;;;;;;;;;;;;;;;;;;4701397;30;19952;-89
2023/03/31 09:53:18;;;;;;;;;;;;;;;;;;4704442;30;19941;-90
2023/03/31 09:55:44;;;;;;;;;;;;;;;;;;4696784;30;19938;-90
2023/03/31 09:58:10;;;;;;;;;;;;;;;;;;4710148;30;19930;-89
2023/03/31 10:00:36;;;;;;;;;;;;;;;;;;4706189;30;19926;-89
2023/03/31 10:03:06;;;;;;;;;;;;;;;;;;4709897;30;19992;-90
2023/03/31 10:05:31;;;;;;;;;;;;;;;;;;4699083;30;20302;-91
2023/03/31 10:07:57;;;;;;;;;;;;;;;;;;4702451;30;19930;-90
2023/03/31 10:10:23;;;;;;;;;;;;;;;;;;4699332;30;19974;-90
2023/03/31 10:12:50;;;;;;;;;;;;;;;;;;4698995;30;19926;-90
2023/03/31 10:15:17;;;;;;;;;;;;;;;;;;4711271;30;20264;-90
2023/03/31 10:17:43;;;;;;;;;;;;;;;;;;4704716;30;19977;-89
2023/03/31 10:20:09;;;;;;;;;;;;;;;;;;4724416;30;19930;-89
2023/03/31 10:22:35;;;;;;;;;;;;;;;;;;4720098;30;19930;-89
2023/03/31 10:25:01;;;;;;;;;;;;;;;;;;4733462;30;19934;-89
2023/03/31 10:27:27;;;;;;;;;;;;;;;;;;4718739;30;19932;-89
2023/03/31 10:29:53;;;;;;;;;;;;;;;;;;4711111;30;19926;-89
2023/03/31 10:32:19;;;;;;;;;;;;;;;;;;4724640;30;20394;-89
2023/03/31 10:34:45;;;;;;;;;;;;;;;;;;4709026;30;20391;-89
2023/03/31 10:37:11;;;;;;;;;;;;;;;;;;4709675;30;19930;-89
2023/03/31 10:39:38;;;;;;;;;;;;;;;;;;4726782;30;20024;-88
2023/03/31 10:42:04;;;;;;;;;;;;;;;;;;4707493;30;20379;-89
2023/03/31 10:44:30;;;;;;;;;;;;;;;;;;4710092;30;19930;-89
2023/03/31 10:46:56;;;;;;;;;;;;;;;;;;4701980;30;19930;-89
2023/03/31 10:49:22;;;;;;;;;;;;;;;;;;4714071;30;19926;-89
2023/03/31 10:51:48;;;;;;;;;;;;;;;;;;4699641;30;19948;-89
2023/03/31 10:54:14;;;;;;;;;;;;;;;;;;4718014;30;20424;-89
2023/03/31 10:56:40;;;;;;;;;;;;;;;;;;4711433;30;19981;-90
2023/03/31 10:59:09;;;;;;;;;;;;;;;;;;4707832;30;19999;-90
2023/03/31 11:01:35;;;;;;;;;;;;;;;;;;4710114;30;19930;-89
2023/03/31 11:04:01;;;;;;;;;;;;;;;;;;4720115;30;20508;-90
2023/03/31 11:06:27;;;;;;;;;;;;;;;;;;4711782;30;19926;-90
2023/03/31 11:08:53;;;;;;;;;;;;;;;;;;4704387;30;20403;-90
2023/03/31 11:11:19;;;;;;;;;;;;;;;;;;4716369;30;19930;-89
2023/03/31 11:13:45;;;;;;;;;;;;;;;;;;4705115;30;20709;-90
2023/03/31 11:16:11;;;;;;;;;;;;;;;;;;4711238;30;20092;-90
2023/03/31 11:18:37;;;;;;;;;;;;;;;;;;4723831;30;19930;-90
2023/03/31 11:21:03;;;;;;;;;;;;;;;;;;4718447;30;19978;-89
2023/03/31 11:23:29;;;;;;;;;;;;;;;;;;4711318;30;19930;-90
2023/03/31 11:25:55;;;;;;;;;;;;;;;;;;4717521;30;19930;-89
2023/03/31 11:28:21;;;;;;;;;;;;;;;;;;4727292;30;20466;-89
2023/03/31 11:30:47;;;;;;;;;;;;;;;;;;4705768;30;20021;-89
2023/03/31 11:33:13;;;;;;;;;;;;;;;;;;4708717;30;19934;-89
2023/03/31 11:35:42;;;;;;;;;;;;;;;;;;4727603;30;19937;-89
2023/03/31 11:38:10;;;;;;;;;;;;;;;;;;4702878;30;19966;-89
2023/03/31 11:40:36;;;;;;;;;;;;;;;;;;4711194;30;19938;-89
2023/03/31 11:43:02;;;;;;;;;;;;;;;;;;4706212;30;19934;-90
2023/03/31 11:45:28;;;;;;;;;;;;;;;;;;4719884;30;19934;-89
2023/03/31 11:47:54;;;;;;;;;;;;;;;;;;4709623;30;20284;-90
2023/03/31 11:50:20;;;;;;;;;;;;;;;;;;4730783;30;19926;-89
2023/03/31 11:52:46;;;;;;;;;;;;;;;;;;4710848;30;19934;-89
2023/03/31 11:55:14;;;;;;;;;;;;;;;;;;4708481;30;20078;-89
2023/03/31 11:57:40;;;;;;;;;;;;;;;;;;4704918;30;20021;-90
2023/03/31 12:00:07;;;;;;;;;;;;;;;;;;4711883;30;19969;-90
2023/03/31 12:02:33;;;;;;;;;;;;;;;;;;4722622;30;20064;-90
2023/03/31 12:04:59;;;;;;;;;;;;;;;;;;4708230;30;20030;-90
2023/03/31 12:07:25;;;;;;;;;;;;;;;;;;4721323;30;19933;-89
2023/03/31 12:09:51;;;;;;;;;;;;;;;;;;4704565;30;19934;-90
2023/03/31 12:12:17;;;;;;;;;;;;;;;;;;4701706;30;19934;-90
2023/03/31 12:14:43;;;;;;;;;;;;;;;;;;4709235;30;20373;-90
2023/03/31 12:17:09;;;;;;;;;;;;;;;;;;4706168;30;20405;-89
2023/03/31 12:19:35;;;;;;;;;;;;;;;;;;4724476;30;20411;-89
2023/03/31 12:22:01;;;;;;;;;;;;;;;;;;4701245;30;20389;-89
2023/03/31 12:24:27;;;;;;;;;;;;;;;;;;4714782;30;19933;-90
2023/03/31 12:26:53;;;;;;;;;;;;;;;;;;4702816;30;20028;-90
2023/03/31 12:29:19;;;;;;;;;;;;;;;;;;4705982;30;19956;-89
2023/03/31 12:31:45;;;;;;;;;;;;;;;;;;4704800;30;19995;-90
2023/03/31 12:34:11;;;;;;;;;;;;;;;;;;4708048;30;19937;-89
2023/03/31 12:36:37;;;;;;;;;;;;;;;;;;4704307;30;19970;-90
2023/03/31 12:39:03;;;;;;;;;;;;;;;;;;4701883;30;21624;-90
2023/03/31 12:41:29;;;;;;;;;;;;;;;;;;4723123;30;19938;-90
2023/03/31 12:43:55;;;;;;;;;;;;;;;;;;4721017;30;20354;-89
2023/03/31 12:46:21;;;;;;;;;;;;;;;;;;4710979;30;19937;-90
2023/03/31 12:48:48;;;;;;;;;;;;;;;;;;4705318;30;19934;-89
2023/03/31 12:51:14;;;;;;;;;;;;;;;;;;4712011;30;19998;-89
2023/03/31 12:53:40;;;;;;;;;;;;;;;;;;4708698;30;19937;-90
2023/03/31 12:56:07;;;;;;;;;;;;;;;;;;4706037;30;20290;-90
2023/03/31 12:58:33;;;;;;;;;;;;;;;;;;4721377;30;19933;-90
2023/03/31 13:01:00;;;;;;;;;;;;;;;;;;4717746;30;20406;-90
2023/03/31 13:03:26;;;;;;;;;;;;;;;;;;4724218;30;19926;-90
2023/03/31 13:05:52;;;;;;;;;;;;;;;;;;4703636;30;19930;-90
2023/03/31 13:08:18;;;;;;;;;;;;;;;;;;4716440;30;19926;-90
2023/03/31 13:10:44;;;;;;;;;;;;;;;;;;4697791;30;19988;-90
2023/03/31 13:13:10;;;;;;;;;;;;;;;;;;4725041;30;19934;-90
2023/03/31 13:15:35;;;;;;;;;;;;;;;;;;4729026;30;19969;-90
2023/03/31 13:18:02;;;;;;;;;;;;;;;;;;4701426;30;19937;-90
2023/03/31 13:20:27;;;;;;;;;;;;;;;;;;4725473;30;20290;-90
2023/03/31 13:22:56;;;;;;;;;;;;;;;;;;4714601;30;19933;-90
2023/03/31 13:25:22;;;;;;;;;;;;;;;;;;4709288;30;19930;-89
2023/03/31 13:27:47;;;;;;;;;;;;;;;;;;4701219;30;20398;-90
2023/03/31 13:30:13;;;;;;;;;;;;;;;;;;4708336;30;19926;-90
2023/03/31 13:32:41;;;;;;;;;;;;;;;;;;4716024;30;20798;-90
2023/03/31 13:35:07;;;;;;;;;;;;;;;;;;4721603;30;20029;-90
2023/03/31 13:37:33;;;;;;;;;;;;;;;;;;4720573;30;20485;-90
2023/03/31 13:39:59;;;;;;;;;;;;;;;;;;4724567;30;19926;-89
2023/03/31 13:42:25;;;;;;;;;;;;;;;;;;4725960;30;20302;-89
2023/03/31 13:44:52;;;;;;;;;;;;;;;;;;4702909;30;19983;-90
2023/03/31 13:47:18;;;;;;;;;;;;;;;;;;4707807;30;19929;-90
2023/03/31 13:49:44;;;;;;;;;;;;;;;;;;4720854;30;19927;-90
2023/03/31 13:52:10;;;;;;;;;;;;;;;;;;4716183;30;19934;-89
2023/03/31 14:28:50;;;;;;;;;;;;;;;;;;;;;
2023/03/31 14:42:31;;;;;;;;;;;;;;;;;;;;;
2023/03/31 14:45:30;;;;;;;;;;;;;;;;;;4648109;30;19975;-87
2023/03/31 14:48:43;;;;;;;;;;;;;;;;;;;;;
2023/03/31 14:51:14;;;;;;;;;;;;;;;;;;4631253;30;19947;-87
2023/03/31 14:56:53;;;;;;;;;;;;;;;;;;4697627;30;19930;-87
2023/03/31 15:12:04;;;;;;;;;;;;;;;;;;;;;
2023/03/31 15:23:52;;;;;;;;;;;;;;;;;;4724894;30;20026;-87
2023/03/31 15:29:37;;;;;;;;;;;;;;;;;;4765080;29;20024;-87
2023/03/31 15:35:12;;;;;;;;;;;;;;;;;;4736515;30;19952;-87
2023/03/31 15:44:21;;;;;;;;;;;;;;;;;;;;;
2023/03/31 15:46:37;;;;;;;;;;;;;;;;;;4728100;30;19937;-87
2023/03/31 15:49:29;;;;;;;;;;;;;;;;;;4718981;30;19930;-87
2023/03/31 15:52:20;;;;;;;;;;;;;;;;;;;;;
2023/03/31 17:59:47;;;;;;;;;;;;;;;;;;4629440;30;19928;-85
2023/03/31 19:15:22;;;;;;;;;;;;;;;;;;6277523;22;20510;-94
2023/03/31 19:17:48;;;;;;;;;;;;;;;;;;6247712;22;19923;-94
2023/03/31 19:20:17;;;;;;;;;;;;;;;;;;6244473;22;19918;-94
2023/03/31 19:22:43;;;;;;;;;;;;;;;;;;6242997;22;19915;-94
2023/03/31 19:25:09;;;;;;;;;;;;;;;;;;6243811;22;20097;-94
2023/03/31 19:27:35;;;;;;;;;;;;;;;;;;6243334;22;19954;-94
2023/03/31 19:30:01;;;;;;;;;;;;;;;;;;6243077;22;19923;-94
2023/03/31 19:32:27;;;;;;;;;;;;;;;;;;6245455;22;19919;-94
2023/03/31 19:34:54;;;;;;;;;;;;;;;;;;6244713;22;19915;-93
2023/03/31 19:37:20;;;;;;;;;;;;;;;;;;6246172;22;19919;-93
2023/03/31 19:39:46;;;;;;;;;;;;;;;;;;6239733;22;19923;-93
2023/03/31 19:42:14;;;;;;;;;;;;;;;;;;6245919;22;19919;-94
2023/03/31 19:44:40;;;;;;;;;;;;;;;;;;6246906;22;19930;-93
2023/03/31 19:47:06;;;;;;;;;;;;;;;;;;6242363;22;20241;-93
2023/03/31 19:49:32;;;;;;;;;;;;;;;;;;6243628;22;19980;-93
2023/03/31 19:51:58;;;;;;;;;;;;;;;;;;6243222;22;20260;-92
2023/03/31 19:54:24;;;;;;;;;;;;;;;;;;6248493;22;19950;-94
2023/03/31 19:56:50;;;;;;;;;;;;;;;;;;6239770;22;20454;-93
2023/03/31 19:59:16;;;;;;;;;;;;;;;;;;6236010;22;19929;-93
2023/03/31 20:01:42;;;;;;;;;;;;;;;;;;6241430;22;20289;-91
2023/03/31 20:04:10;;;;;;;;;;;;;;;;;;6243137;22;20347;-93
2023/03/31 20:06:37;;;;;;;;;;;;;;;;;;6246823;22;19926;-92
2023/03/31 20:09:05;;;;;;;;;;;;;;;;;;6244157;22;19919;-94
2023/03/31 20:11:31;;;;;;;;;;;;;;;;;;6241196;22;20407;-93
2023/03/31 20:13:57;;;;;;;;;;;;;;;;;;6243017;22;19941;-92
2023/03/31 20:16:23;;;;;;;;;;;;;;;;;;6242345;22;19926;-93
2023/03/31 20:18:50;;;;;;;;;;;;;;;;;;6243241;22;20255;-94
2023/03/31 20:21:16;;;;;;;;;;;;;;;;;;6244709;22;20322;-93
2023/03/31 20:23:42;;;;;;;;;;;;;;;;;;6240457;22;20255;-93
2023/03/31 20:26:08;;;;;;;;;;;;;;;;;;6238357;22;19919;-93
2023/03/31 20:28:34;;;;;;;;;;;;;;;;;;6245017;22;19919;-94
2023/03/31 20:31:00;;;;;;;;;;;;;;;;;;6267053;22;19946;-93
2023/03/31 20:33:26;;;;;;;;;;;;;;;;;;6244944;22;19919;-94
2023/03/31 20:35:53;;;;;;;;;;;;;;;;;;6268908;22;19956;-94
2023/03/31 20:38:19;;;;;;;;;;;;;;;;;;6270397;22;19919;-95
2023/03/31 20:40:47;;;;;;;;;;;;;;;;;;6242992;22;19926;-94
2023/03/31 20:43:14;;;;;;;;;;;;;;;;;;6241068;22;20251;-94
2023/03/31 21:00:52;;;;;;;;;;;;;;;;;;6200586;23;19997;-93
2023/03/31 21:03:18;;;;;;;;;;;;;;;;;;6182569;23;19994;-93
2023/03/31 21:11:51;;;;;;;;;;;;;;;;;;6229383;23;19965;-94
2023/03/31 21:17:37;;;;;;;;;;;;;;;;;;6131010;23;20289;-92
2023/03/31 21:20:03;;;;;;;;;;;;;;;;;;6120411;23;20320;-93
2023/03/31 21:22:29;;;;;;;;;;;;;;;;;;6133637;23;20245;-93
2023/03/31 21:24:55;;;;;;;;;;;;;;;;;;6176230;23;19920;-93
2023/03/31 21:27:22;;;;;;;;;;;;;;;;;;6154204;23;20351;-93
2023/03/31 21:29:48;;;;;;;;;;;;;;;;;;6152079;23;20152;-94
2023/03/31 21:32:14;;;;;;;;;;;;;;;;;;6147604;23;19952;-95
2023/03/31 21:34:40;;;;;;;;;;;;;;;;;;6150640;23;20432;-93
2023/03/31 21:37:07;;;;;;;;;;;;;;;;;;6173416;23;19994;-94
2023/03/31 21:39:33;;;;;;;;;;;;;;;;;;6152525;23;19919;-93
2023/03/31 21:41:59;;;;;;;;;;;;;;;;;;6152619;23;19916;-94
2023/03/31 21:44:26;;;;;;;;;;;;;;;;;;6154303;23;19916;-92
2023/03/31 21:46:52;;;;;;;;;;;;;;;;;;6147516;23;20256;-94
2023/03/31 21:49:18;;;;;;;;;;;;;;;;;;6180436;23;19926;-92